Time;durP1;ratioP1;P1;durP2;ratioP2;P2;SDS_P1;SDS_P2;PMS_P1;PMS_P2;Temp;Humidity;BMP_temperature;BMP_pressure;BME280_temperature;BME280_humidity;BME280_pressure;Samples;Min_cycle;Max_cycle;Signal;HPM_P1;HPM_P2
2022/07/11 00:00:05;;;;;;;8.80;2.00;;;;;;;17.76;100.00;102261.72;5176872;27;20053;-51
2022/07/11 00:02:34;;;;;;;7.45;2.10;;;;;;;17.76;100.00;102268.84;5176322;27;20054;-57
2022/07/11 00:05:02;;;;;;;6.60;1.92;;;;;;;17.74;100.00;102264.50;5176975;27;20042;-47
2022/07/11 00:07:30;;;;;;;6.82;1.70;;;;;;;17.82;100.00;102265.72;5177057;27;20057;-51
2022/07/11 00:09:59;;;;;;;8.52;2.65;;;;;;;17.81;100.00;102267.56;5176773;27;20050;-51
2022/07/11 00:12:27;;;;;;;6.88;1.92;;;;;;;17.83;100.00;102260.31;5176360;27;20045;-52
2022/07/11 00:14:57;;;;;;;6.70;2.28;;;;;;;17.85;100.00;102262.88;5176383;27;20402;-57
2022/07/11 00:17:25;;;;;;;7.57;1.95;;;;;;;17.83;100.00;102260.31;5157531;27;20053;-57
2022/07/11 00:19:53;;;;;;;7.75;2.08;;;;;;;17.87;100.00;102261.78;5176844;27;20046;-57
2022/07/11 00:22:21;;;;;;;6.53;1.80;;;;;;;17.85;100.00;102257.53;5176951;27;20091;-57
2022/07/11 00:24:50;;;;;;;5.95;2.10;;;;;;;17.79;100.00;102255.31;5176377;27;20042;-56
2022/07/11 00:27:18;;;;;;;4.50;2.10;;;;;;;17.76;100.00;102252.91;5176854;27;20042;-56
2022/07/11 00:29:46;;;;;;;6.18;2.15;;;;;;;17.79;100.00;102261.47;5175914;27;20095;-56
2022/07/11 00:32:16;;;;;;;8.98;2.20;;;;;;;17.82;100.00;102257.75;5173372;27;20058;-49
2022/07/11 00:34:44;;;;;;;4.88;1.90;;;;;;;17.74;100.00;102255.66;5173894;27;20057;-51
2022/07/11 00:37:12;;;;;;;6.90;2.10;;;;;;;17.76;100.00;102256.38;5176257;27;20095;-52
2022/07/11 00:39:40;;;;;;;5.00;1.80;;;;;;;17.79;100.00;102252.66;5176391;27;20042;-57
2022/07/11 00:42:08;;;;;;;5.75;1.75;;;;;;;17.73;100.00;102245.97;5176180;27;20034;-58
2022/07/11 00:44:37;;;;;;;7.50;1.75;;;;;;;17.72;100.00;102253.13;5173716;27;20046;-57
2022/07/11 00:47:05;;;;;;;6.97;1.90;;;;;;;17.70;100.00;102249.72;5155530;27;20516;-50
2022/07/11 00:49:34;;;;;;;6.93;1.80;;;;;;;17.69;100.00;102249.84;5174123;27;20079;-52
2022/07/11 00:52:03;;;;;;;6.55;1.67;;;;;;;17.71;100.00;102254.09;5173398;27;20057;-58
2022/07/11 00:54:31;;;;;;;5.15;1.60;;;;;;;17.66;100.00;102250.91;5174986;27;20046;-49
2022/07/11 00:56:59;;;;;;;5.25;1.70;;;;;;;17.66;100.00;102250.91;5176085;27;20050;-57
2022/07/11 00:59:30;;;;;;;8.32;1.80;;;;;;;17.71;100.00;102250.56;5175640;27;20559;-51
2022/07/11 01:01:58;;;;;;;6.13;2.10;;;;;;;17.73;100.00;102246.81;5172489;27;20038;-51
2022/07/11 01:04:27;;;;;;;7.07;2.10;;;;;;;17.76;100.00;102244.91;5175039;27;20302;-51
2022/07/11 01:06:57;;;;;;;10.07;1.70;;;;;;;17.80;100.00;102241.91;5172464;27;20064;-52
2022/07/11 01:09:26;;;;;;;7.15;2.05;;;;;;;17.77;100.00;102235.97;5172874;27;20525;-57
2022/07/11 01:11:54;;;;;;;8.20;2.00;;;;;;;17.77;100.00;102241.28;5176068;27;20050;-57
2022/07/11 01:14:22;;;;;;;7.47;2.10;;;;;;;17.71;100.00;102243.44;5155745;27;20050;-57
2022/07/11 01:16:51;;;;;;;8.57;2.50;;;;;;;17.70;100.00;102239.06;5172776;27;20038;-57
2022/07/11 01:19:19;;;;;;;6.10;1.95;;;;;;;17.73;100.00;102244.16;5175192;27;20048;-57
2022/07/11 01:21:51;;;;;;;5.97;1.80;;;;;;;17.70;100.00;102241.75;5174019;27;20034;-49
2022/07/11 01:24:20;;;;;;;5.18;1.45;;;;;;;17.66;100.00;102234.09;5174141;27;20042;-50
2022/07/11 01:26:52;;;;;;;4.80;1.73;;;;;;;17.60;100.00;102235.41;5169748;27;20052;-49
2022/07/11 01:29:20;;;;;;;6.00;1.70;;;;;;;17.62;100.00;102238.78;5173230;27;20208;-51
2022/07/11 01:31:48;;;;;;;6.95;1.60;;;;;;;17.65;100.00;102243.88;5156295;27;20049;-57
2022/07/11 01:34:16;;;;;;;5.43;1.55;;;;;;;17.67;100.00;102230.47;5175241;27;20141;-56
2022/07/11 01:36:44;;;;;;;7.03;1.77;;;;;;;17.61;100.00;102237.09;5172300;27;20054;-49
2022/07/11 01:39:12;;;;;;;4.05;1.58;;;;;;;17.57;100.00;102231.16;5173049;27;20046;-52
2022/07/11 01:41:41;;;;;;;5.07;1.33;;;;;;;17.63;100.00;102228.97;5175296;27;20094;-57
2022/07/11 01:44:09;;;;;;;5.15;1.50;;;;;;;17.54;100.00;102231.34;5173241;27;20090;-50
2022/07/11 01:46:37;;;;;;;6.93;1.90;;;;;;;17.59;100.00;102236.38;5171679;27;20050;-53
2022/07/11 01:49:05;;;;;;;4.65;1.52;;;;;;;17.60;100.00;102234.53;5174960;27;20042;-50
2022/07/11 01:51:35;;;;;;;5.60;1.33;;;;;;;17.66;100.00;102236.75;5173961;27;20061;-57
2022/07/11 01:54:03;;;;;;;3.58;1.27;;;;;;;17.61;100.00;102241.56;5172108;27;20129;-53
2022/07/11 01:56:32;;;;;;;4.45;1.30;;;;;;;17.61;100.00;102237.09;5173374;27;20569;-58
2022/07/11 01:59:02;;;;;;;5.82;1.20;;;;;;;17.57;100.00;102246.25;5174848;27;20094;-50
2022/07/11 02:01:30;;;;;;;5.80;1.30;;;;;;;17.52;100.00;102243.06;5156160;27;20042;-53
2022/07/11 02:03:59;;;;;;;3.88;1.30;;;;;;;17.51;100.00;102244.88;5156680;27;20074;-58
2022/07/11 02:06:27;;;;;;;5.03;1.52;;;;;;;17.46;100.00;102248.84;5174952;27;20126;-58
2022/07/11 02:08:55;;;;;;;4.53;1.58;;;;;;;17.45;100.00;102248.00;5156130;27;20050;-58
2022/07/11 02:11:23;;;;;;;6.18;1.50;;;;;;;17.42;100.00;102248.22;5174964;27;20077;-52
2022/07/11 02:13:51;;;;;;;5.57;1.50;;;;;;;17.30;100.00;102244.66;5171481;27;20056;-57
2022/07/11 02:16:21;;;;;;;5.22;1.52;;;;;;;17.33;100.00;102238.22;5175304;27;20069;-58
2022/07/11 02:18:50;;;;;;;4.88;1.30;;;;;;;17.35;100.00;102238.97;5178206;27;20530;-52
2022/07/11 02:21:19;;;;;;;6.93;1.50;;;;;;;17.30;100.00;102243.78;5176556;27;20042;-57
2022/07/11 02:23:47;;;;;;;4.82;1.40;;;;;;;17.24;100.00;102242.41;5177989;27;20389;-51
2022/07/11 02:26:15;;;;;;;4.80;1.30;;;;;;;17.30;100.00;102241.13;5179013;27;20937;-57
2022/07/11 02:28:44;;;;;;;5.45;1.70;;;;;;;17.31;100.00;102242.81;5179120;27;20063;-57
2022/07/11 02:31:12;;;;;;;3.70;1.50;;;;;;;17.30;100.00;102246.44;5178890;27;20080;-50
2022/07/11 02:33:42;;;;;;;4.70;1.67;;;;;;;17.20;100.00;102241.78;5178992;27;20098;-52
2022/07/11 02:36:11;;;;;;;3.58;1.30;;;;;;;17.24;100.00;102245.06;5178769;27;20148;-57
2022/07/11 02:38:39;;;;;;;4.15;1.48;;;;;;;17.29;100.00;102242.06;5176579;27;20098;-58
2022/07/11 02:41:07;;;;;;;3.67;1.38;;;;;;;17.26;100.00;102236.97;5174827;27;20565;-57
2022/07/11 02:43:35;;;;;;;5.53;1.50;;;;;;;17.09;100.00;102240.84;5178797;27;20102;-57
2022/07/11 02:46:04;;;;;;;7.75;1.42;;;;;;;17.13;100.00;102231.72;5178734;27;20441;-49
2022/07/11 02:48:33;;;;;;;4.05;1.58;;;;;;;17.13;100.00;102234.38;5178498;27;20042;-48
2022/07/11 02:51:02;;;;;;;3.78;1.05;;;;;;;17.17;100.00;102239.34;5175476;27;20129;-49
2022/07/11 02:53:30;;;;;;;2.55;1.33;;;;;;;17.24;100.00;102237.09;5176798;27;20042;-57
2022/07/11 02:55:58;;;;;;;4.35;1.75;;;;;;;17.18;100.00;102235.72;5178423;27;20137;-51
2022/07/11 02:58:26;;;;;;;2.35;1.30;;;;;;;17.21;100.00;102234.66;5178442;27;20354;-52
2022/07/11 03:00:54;;;;;;;3.45;1.25;;;;;;;17.17;100.00;102235.84;5178224;27;20069;-51
2022/07/11 03:03:22;;;;;;;4.07;1.20;;;;;;;17.17;100.00;102234.03;5177023;27;20098;-52
2022/07/11 03:05:50;;;;;;;4.60;1.10;;;;;;;17.12;100.00;102241.47;5177998;27;20043;-53
2022/07/11 03:08:20;;;;;;;4.70;1.50;;;;;;;17.07;100.00;102238.31;5162272;27;20077;-50
2022/07/11 03:10:48;;;;;;;3.58;1.30;;;;;;;17.11;100.00;102239.78;5176015;27;20050;-57
2022/07/11 03:13:16;;;;;;;6.50;1.73;;;;;;;17.08;100.00;102237.34;5177880;27;20073;-57
2022/07/11 03:15:44;;;;;;;4.60;1.55;;;;;;;17.06;100.00;102237.44;5177769;27;20042;-57
2022/07/11 03:18:12;;;;;;;3.42;1.40;;;;;;;17.04;100.00;102241.16;5175423;27;20050;-58
2022/07/11 03:20:40;;;;;;;4.97;1.40;;;;;;;17.05;100.00;102243.72;5175926;27;20038;-57
2022/07/11 03:23:08;;;;;;;5.60;1.35;;;;;;;16.95;100.00;102247.16;5176948;27;20046;-51
2022/07/11 03:25:37;;;;;;;5.95;1.48;;;;;;;16.98;100.00;102249.59;5173893;27;20065;-56
2022/07/11 03:28:06;;;;;;;4.63;1.38;;;;;;;17.00;100.00;102247.66;5175616;27;20048;-57
2022/07/11 03:30:34;;;;;;;4.60;1.52;;;;;;;16.87;100.00;102252.97;5177238;27;20042;-57
2022/07/11 03:33:01;;;;;;;5.15;1.45;;;;;;;16.85;100.00;102253.06;5177180;27;20050;-58
2022/07/11 03:35:41;;;;;;;6.03;1.70;;;;;;;16.85;100.00;102250.41;5177618;27;20054;-58
2022/07/11 03:38:10;;;;;;;4.30;1.60;;;;;;;16.74;100.00;102252.94;5177547;27;20042;-52
2022/07/11 03:40:40;;;;;;;3.80;1.48;;;;;;;16.77;100.00;102250.09;5177427;27;20058;-51
2022/07/11 03:43:08;;;;;;;3.28;1.55;;;;;;;16.84;100.00;102243.38;5176942;27;20039;-50
2022/07/11 03:45:37;;;;;;;4.95;1.70;;;;;;;16.73;100.00;102241.47;5177439;27;20079;-57
2022/07/11 03:48:05;;;;;;;5.85;1.80;;;;;;;16.65;100.00;102248.28;5173176;27;20468;-51
2022/07/11 03:50:34;;;;;;;5.18;1.63;;;;;;;16.53;100.00;102255.28;5174807;27;20069;-50
2022/07/11 03:53:02;;;;;;;3.20;1.55;;;;;;;16.61;100.00;102250.28;5176951;27;20094;-58
2022/07/11 03:55:31;;;;;;;5.75;1.52;;;;;;;16.54;100.00;102252.50;5177362;27;20065;-51
2022/07/11 03:58:00;;;;;;;3.95;1.60;;;;;;;16.62;100.00;102257.31;5173623;27;20038;-50
2022/07/11 04:00:28;;;;;;;2.53;1.40;;;;;;;16.69;100.00;102244.47;5173932;27;20046;-54
2022/07/11 04:02:57;;;;;;;4.85;1.60;;;;;;;16.62;100.00;102254.66;5177046;27;20042;-53
2022/07/11 04:05:25;;;;;;;4.40;1.80;;;;;;;16.51;100.00;102255.38;5176670;27;20129;-53
2022/07/11 04:07:53;;;;;;;3.50;1.38;;;;;;;16.61;100.00;102258.25;5176715;27;20069;-51
2022/07/11 04:10:21;;;;;;;5.00;1.40;;;;;;;16.63;100.00;102256.34;5176747;27;20090;-50
2022/07/11 04:12:50;;;;;;;4.18;1.50;;;;;;;16.65;100.00;102253.59;5176684;27;20532;-51
2022/07/11 04:15:19;;;;;;;6.07;1.65;;;;;;;16.63;100.00;102256.34;5176462;27;20050;-51
2022/07/11 04:17:48;;;;;;;4.97;1.77;;;;;;;16.58;100.00;102263.78;5176497;27;20046;-52
2022/07/11 04:20:16;;;;;;;3.85;1.40;;;;;;;16.62;100.00;102256.44;5176464;27;20044;-57
2022/07/11 04:22:44;;;;;;;3.58;1.63;;;;;;;16.61;100.00;102252.13;5176806;27;20048;-56
2022/07/11 04:25:12;;;;;;;8.18;1.92;;;;;;;16.66;100.00;102258.81;5174543;27;20098;-52
2022/07/11 04:27:40;;;;;;;4.00;1.40;;;;;;;16.58;100.00;102263.78;5172508;27;20053;-51
2022/07/11 04:30:09;;;;;;;8.18;1.60;;;;;;;16.63;100.00;102266.97;5173545;27;20061;-53
2022/07/11 04:32:39;;;;;;;7.57;1.58;;;;;;;16.61;100.00;102263.56;5157886;27;20182;-51
2022/07/11 04:35:08;;;;;;;6.13;1.40;;;;;;;16.60;100.00;102276.97;5174737;27;20054;-53
2022/07/11 04:37:36;;;;;;;10.90;1.95;;;;;;;16.64;100.00;102262.53;5175464;27;20046;-50
2022/07/11 04:40:05;;;;;;;7.97;1.63;;;;;;;16.61;100.00;102263.56;5172971;27;20049;-57
2022/07/11 04:42:40;;;;;;;9.73;1.98;;;;;;;16.68;100.00;102267.50;5156050;27;20046;-58
2022/07/11 04:45:09;;;;;;;4.90;1.67;;;;;;;16.70;100.00;102278.00;5176343;27;20050;-57
2022/07/11 04:47:38;;;;;;;8.68;1.30;;;;;;;16.74;100.00;102271.53;5176416;27;20042;-57
2022/07/11 04:50:07;;;;;;;9.00;2.08;;;;;;;16.73;100.00;102273.34;5175745;27;20035;-57
2022/07/11 04:52:36;;;;;;;5.82;1.42;;;;;;;16.68;100.00;102286.09;5175923;27;20094;-52
2022/07/11 04:55:06;;;;;;;6.95;1.60;;;;;;;16.69;100.00;102282.50;5175548;27;20046;-51
2022/07/11 04:57:34;;;;;;;3.88;1.08;;;;;;;16.66;100.00;102282.72;5175865;27;20049;-57
2022/07/11 05:00:03;;;;;;;4.13;1.60;;;;;;;16.68;100.00;102285.25;5176060;27;20042;-57
2022/07/11 05:02:31;;;;;;;4.13;1.40;;;;;;;16.68;100.00;102278.13;5175934;27;20396;-57
2022/07/11 05:05:01;;;;;;;5.88;1.45;;;;;;;16.68;100.00;102278.13;5175649;27;20069;-52
2022/07/11 05:07:29;;;;;;;3.97;1.20;;;;;;;16.73;100.00;102277.84;5174819;27;20054;-51
2022/07/11 05:09:57;;;;;;;3.85;1.60;;;;;;;16.68;100.00;102287.91;5171825;27;20497;-52
2022/07/11 05:12:25;;;;;;;5.50;1.83;;;;;;;16.68;100.00;102275.47;5172951;27;20355;-52
2022/07/11 05:14:53;;;;;;;5.63;1.55;;;;;;;16.78;100.00;102274.84;5175353;27;20062;-52
2022/07/11 05:17:23;;;;;;;6.85;1.48;;;;;;;16.83;100.00;102286.00;5172046;27;20057;-53
2022/07/11 05:19:51;;;;;;;6.28;1.40;;;;;;;16.85;100.00;102281.41;5172106;27;20038;-51
2022/07/11 05:22:21;;;;;;;13.38;2.30;;;;;;;16.83;100.00;102283.34;5156244;27;20050;-57
2022/07/11 05:24:49;;;;;;;4.93;1.55;;;;;;;16.85;100.00;102284.94;5173051;27;20050;-57
2022/07/11 05:27:17;;;;;;;3.60;1.40;;;;;;;16.81;100.00;102285.25;5173885;27;20076;-57
2022/07/11 05:29:45;;;;;;;2.50;1.08;;;;;;;16.86;100.00;102291.09;5173314;27;20482;-56
2022/07/11 05:32:13;;;;;;;5.47;1.50;;;;;;;16.87;100.00;102290.16;5172887;27;20121;-57
2022/07/11 05:34:41;;;;;;;4.68;1.17;;;;;;;16.92;100.00;102293.38;5175290;27;20054;-58
2022/07/11 05:37:09;;;;;;;3.60;1.42;;;;;;;16.91;100.00;102297.00;5175203;27;20053;-57
2022/07/11 05:39:38;;;;;;;4.15;1.20;;;;;;;16.91;100.00;102297.00;5175565;27;20488;-56
2022/07/11 05:42:07;;;;;;;6.85;1.30;;;;;;;17.02;100.00;102299.75;5175061;27;20110;-48
2022/07/11 05:44:35;;;;;;;4.78;1.65;;;;;;;16.97;100.00;102306.34;5175112;27;20042;-57
2022/07/11 05:47:04;;;;;;;4.38;1.52;;;;;;;16.93;100.00;102300.38;5172221;27;20079;-56
2022/07/11 05:49:33;;;;;;;2.70;1.20;;;;;;;17.00;100.00;102306.13;5154190;27;20528;-57
2022/07/11 05:52:01;;;;;;;2.60;1.45;;;;;;;16.92;100.00;102308.44;5173583;27;20173;-49
2022/07/11 05:54:29;;;;;;;3.75;1.30;;;;;;;16.94;100.00;102301.25;5170945;27;20046;-49
2022/07/11 05:57:01;;;;;;;3.38;1.25;;;;;;;16.97;100.00;102301.03;5169955;27;20052;-57
2022/07/11 05:59:29;;;;;;;2.97;1.13;;;;;;;17.14;100.00;102299.84;5175003;27;20049;-56
2022/07/11 06:01:57;;;;;;;3.33;1.40;;;;;;;17.05;100.00;102304.84;5174900;27;20045;-50
2022/07/11 06:04:25;;;;;;;5.35;1.83;;;;;;;17.11;100.00;102308.91;5175128;27;20053;-56
2022/07/11 06:06:53;;;;;;;5.30;1.67;;;;;;;17.12;100.00;102307.06;5175051;27;20062;-57
2022/07/11 06:09:21;;;;;;;3.67;1.60;;;;;;;17.20;100.00;102318.03;5174350;27;20094;-58
2022/07/11 06:11:49;;;;;;;6.50;1.65;;;;;;;17.24;100.00;102304.41;5174535;27;20095;-52
2022/07/11 06:14:19;;;;;;;5.80;1.52;;;;;;;17.31;100.00;102311.94;5174295;27;20046;-57
2022/07/11 06:16:47;;;;;;;4.80;1.60;;;;;;;17.40;100.00;102314.81;5174688;27;20090;-58
2022/07/11 06:19:15;;;;;;;3.67;1.40;;;;;;;17.32;100.00;102305.69;5174197;27;20450;-49
2022/07/11 06:21:43;;;;;;;3.70;1.30;;;;;;;17.33;100.00;102312.69;5173732;27;20042;-52
2022/07/11 06:24:11;;;;;;;3.50;1.10;;;;;;;17.35;100.00;102313.44;5173253;27;20492;-52
2022/07/11 06:26:39;;;;;;;5.47;1.25;;;;;;;17.54;100.00;102315.63;5169447;27;20070;-52
2022/07/11 06:29:07;;;;;;;5.85;1.35;;;;;;;17.56;100.00;102309.25;5171578;27;20873;-53
2022/07/11 06:31:37;;;;;;;3.58;1.25;;;;;;;17.53;100.00;102312.13;5174461;27;20078;-57
2022/07/11 06:34:05;;;;;;;4.47;1.30;;;;;;;17.51;100.00;102310.53;5171695;27;20500;-57
2022/07/11 06:36:33;;;;;;;4.78;1.02;;;;;;;17.55;100.00;102312.03;5170838;27;20064;-51
2022/07/11 06:39:01;;;;;;;2.90;1.00;;;;;;;17.60;100.00;102317.00;5174091;27;20042;-53
2022/07/11 06:41:30;;;;;;;7.03;1.00;;;;;;;17.68;100.00;102315.50;5154648;27;20157;-53
2022/07/11 06:43:58;;;;;;;2.25;1.20;;;;;;;17.77;100.00;102311.31;5174636;27;20098;-53
2022/07/11 06:46:27;;;;;;;3.60;0.98;;;;;;;17.67;100.00;102308.47;5174138;27;20452;-52
2022/07/11 06:48:56;;;;;;;2.83;1.00;;;;;;;17.67;100.00;102308.47;5174116;27;20046;-54
2022/07/11 06:51:24;;;;;;;0.75;0.60;;;;;;;17.74;100.00;102306.22;5174219;27;20049;-49
2022/07/11 06:53:53;;;;;;;2.08;0.90;;;;;;;17.89;100.00;102312.25;5165929;27;20459;-54
2022/07/11 06:56:21;;;;;;;2.05;0.95;;;;;;;17.87;100.00;102308.81;5174409;27;20050;-57
2022/07/11 06:58:49;;;;;;;3.70;1.20;;;;;;;17.90;100.00;102312.13;5172666;27;20075;-57
2022/07/11 07:01:17;;;;;;;3.58;0.95;;;;;;;17.83;100.00;102307.34;5172635;27;20350;-57
2022/07/11 07:03:46;;;;;;;3.83;1.08;;;;;;;17.78;100.00;102317.47;5178709;27;20129;-57
2022/07/11 07:06:17;;;;;;;1.98;0.98;;;;;;;17.86;100.00;102309.78;5178285;27;20045;-51
2022/07/11 07:08:45;;;;;;;2.33;1.10;;;;;;;17.91;100.00;102307.63;5176070;27;20113;-52
2022/07/11 07:11:13;;;;;;;1.67;0.90;;;;;;;17.97;100.00;102306.38;5170933;27;20066;-53
2022/07/11 07:13:42;;;;;;;2.00;0.73;;;;;;;17.99;100.00;102305.28;5176788;27;20549;-52
2022/07/11 07:16:10;;;;;;;1.83;1.10;;;;;;;18.08;100.00;102304.63;5178076;27;20052;-57
2022/07/11 07:18:41;;;;;;;3.25;0.90;;;;;;;18.18;100.00;102301.28;5177309;27;20057;-57
2022/07/11 07:21:10;;;;;;;2.10;1.15;;;;;;;18.23;100.00;102307.94;5175250;27;20046;-56
2022/07/11 07:23:40;;;;;;;0.88;0.63;;;;;;;18.31;100.00;102309.19;5176273;27;20129;-50
2022/07/11 07:26:08;;;;;;;2.65;1.00;;;;;;;18.40;100.00;102306.66;5177672;27;20041;-57
2022/07/11 07:28:38;;;;;;;3.13;0.90;;;;;;;18.51;100.00;102310.34;5178044;27;20038;-56
2022/07/11 07:31:07;;;;;;;1.40;0.70;;;;;;;18.54;100.00;102310.09;5175514;27;20098;-50
2022/07/11 07:33:42;;;;;;;3.00;0.80;;;;;;;18.68;100.00;102307.25;5177348;27;20052;-56
2022/07/11 07:36:14;;;;;;;2.03;0.80;;;;;;;18.50;100.00;102297.97;5177191;27;20042;-50
2022/07/11 07:38:46;;;;;;;0.63;0.60;;;;;;;18.86;100.00;102298.81;5177018;27;20099;-56
2022/07/11 07:41:15;;;;;;;1.83;0.70;;;;;;;18.99;100.00;102291.59;5177043;27;20045;-51
2022/07/11 07:43:43;;;;;;;2.80;0.80;;;;;;;19.04;100.00;102293.88;5177485;27;20042;-52
2022/07/11 07:46:12;;;;;;;1.23;0.55;;;;;;;19.24;100.00;102295.81;5177714;27;20125;-56
2022/07/11 07:48:41;;;;;;;1.42;0.52;;;;;;;19.57;100.00;102295.91;5176011;27;20491;-50
2022/07/11 07:51:09;;;;;;;1.33;0.60;;;;;;;19.62;100.00;102301.72;5173384;27;20396;-53
2022/07/11 07:53:37;;;;;;;1.77;0.75;;;;;;;19.71;100.00;102308.13;5177429;27;20044;-51
2022/07/11 07:56:07;;;;;;;0.70;0.60;;;;;;;19.88;100.00;102301.47;5177319;27;20099;-58
2022/07/11 07:58:35;;;;;;;2.58;0.60;;;;;;;20.18;97.65;102307.88;5177150;27;20065;-52
2022/07/11 08:03:49;;;;;;;1.17;0.65;;;;;;;20.14;94.83;102319.78;5177685;27;20042;-57
2022/07/11 08:06:17;;;;;;;0.50;0.50;;;;;;;20.29;97.51;102318.53;5176766;27;20564;-48
2022/07/11 08:08:45;;;;;;;1.65;0.50;;;;;;;20.25;95.55;102322.44;5155093;27;20508;-49
2022/07/11 08:11:15;;;;;;;1.73;0.60;;;;;;;20.34;95.96;102319.00;5174609;27;20053;-57
2022/07/11 08:14:00;;;;;;;1.13;0.50;;;;;;;20.40;95.48;102328.31;5176530;27;20108;-57
2022/07/11 08:16:30;;;;;;;2.25;0.65;;;;;;;20.53;94.01;102326.31;5177133;27;20592;-53
2022/07/11 08:18:59;;;;;;;1.33;0.80;;;;;;;20.61;93.08;102325.66;5176572;27;20050;-51
2022/07/11 08:21:28;;;;;;;1.23;0.57;;;;;;;20.58;92.72;102325.91;5176356;27;20055;-57
2022/07/11 08:23:57;;;;;;;4.15;0.70;;;;;;;20.62;90.53;102324.69;5174312;27;20133;-56
2022/07/11 08:26:26;;;;;;;0.80;0.57;;;;;;;20.64;90.21;102324.56;5172409;27;20050;-57
2022/07/11 08:29:01;;;;;;;0.38;0.30;;;;;;;20.83;90.01;102321.19;5175982;27;20457;-58
2022/07/11 08:31:29;;;;;;;1.23;0.60;;;;;;;20.85;89.36;102324.59;5175990;27;20046;-57
2022/07/11 08:33:58;;;;;;;1.38;0.60;;;;;;;20.99;88.24;102321.56;5176121;27;20054;-51
2022/07/11 08:36:29;;;;;;;0.93;0.47;;;;;;;21.03;86.54;102319.47;5175830;27;20106;-48
2022/07/11 08:38:59;;;;;;;1.23;0.43;;;;;;;21.06;87.21;102319.19;5175852;27;20047;-50
2022/07/11 08:41:29;;;;;;;0.93;0.40;;;;;;;20.98;87.69;102317.19;5176052;27;20102;-53
2022/07/11 08:43:59;;;;;;;1.98;0.40;;;;;;;21.17;85.84;102311.06;5172734;27;20046;-57
2022/07/11 08:46:27;;;;;;;0.82;0.50;;;;;;;21.18;85.15;102311.94;5156299;27;20535;-53
2022/07/11 08:48:56;;;;;;;1.02;0.70;;;;;;;21.10;85.06;102308.13;5173396;27;20045;-53
2022/07/11 08:51:27;;;;;;;2.40;0.52;;;;;;;21.17;85.62;102310.25;5173495;27;20046;-57
2022/07/11 08:53:56;;;;;;;0.75;0.50;;;;;;;21.13;84.54;102303.47;5175233;27;20504;-53
2022/07/11 08:56:26;;;;;;;0.50;0.50;;;;;;;21.20;84.71;102307.28;5175413;27;20046;-52
2022/07/11 08:58:59;;;;;;;1.35;0.60;;;;;;;21.02;84.64;102297.22;5175713;27;20049;-50
2022/07/11 09:01:30;;;;;;;0.60;0.40;;;;;;;21.12;86.04;102305.31;5174416;27;20091;-56
2022/07/11 09:03:59;;;;;;;1.13;0.60;;;;;;;21.17;85.63;102299.53;5173701;27;20038;-56
2022/07/11 09:06:28;;;;;;;0.98;0.70;;;;;;;21.34;84.42;102301.56;5175031;27;20069;-56
2022/07/11 09:09:00;;;;;;;0.57;0.50;;;;;;;21.50;83.81;102305.56;5172733;27;20061;-56
2022/07/11 09:11:28;;;;;;;1.45;0.70;;;;;;;21.56;82.82;102299.72;5171925;27;20102;-52
2022/07/11 09:13:58;;;;;;;0.80;0.65;;;;;;;21.71;82.06;102303.66;5175494;27;20077;-52
2022/07/11 09:16:28;;;;;;;0.65;0.50;;;;;;;21.70;82.77;102303.81;5176223;27;20058;-51
2022/07/11 09:19:00;;;;;;;1.25;0.60;;;;;;;21.80;82.77;102306.50;5175385;27;20125;-49
2022/07/11 09:26:59;;;;;;;2.03;0.70;;;;;;;21.33;84.40;102307.06;5172966;27;20426;-56
2022/07/11 09:29:28;;;;;;;0.68;0.60;;;;;;;21.23;84.98;102307.88;5173132;27;20798;-56
2022/07/11 09:31:57;;;;;;;1.00;0.60;;;;;;;21.06;86.64;102305.81;5175709;27;20050;-52
2022/07/11 09:34:26;;;;;;;1.95;0.70;;;;;;;21.11;87.07;102307.09;5175299;27;20103;-55
2022/07/11 09:36:56;;;;;;;2.03;0.45;;;;;;;21.17;86.95;102308.41;5156693;27;20046;-56
2022/07/11 09:39:27;;;;;;;0.50;0.50;;;;;;;21.18;87.75;102315.44;5175262;27;20050;-56
2022/07/11 09:41:56;;;;;;;0.90;0.50;;;;;;;21.12;85.23;102313.31;5175396;27;20050;-56
2022/07/11 09:44:27;;;;;;;0.77;0.55;;;;;;;21.03;86.30;102312.28;5175077;27;20038;-51
2022/07/11 09:46:57;;;;;;;0.50;0.50;;;;;;;21.16;85.24;102311.22;5175562;27;20038;-56
2022/07/11 09:49:33;;;;;;;0.75;0.65;;;;;;;21.05;84.52;102318.38;5175328;27;20069;-56
2022/07/11 09:52:09;;;;;;;2.25;0.65;;;;;;;21.07;86.36;102321.72;5175021;27;20030;-51
2022/07/11 09:54:53;;;;;;;1.27;0.60;;;;;;;20.97;86.26;102322.66;5174588;27;20050;-51
2022/07/11 09:57:30;;;;;;;0.95;0.60;;;;;;;21.00;86.81;102328.59;5172106;27;20046;-57
2022/07/11 09:59:59;;;;;;;1.02;0.60;;;;;;;20.96;87.89;102319.16;5174145;27;20099;-52
2022/07/11 10:02:29;;;;;;;1.55;0.60;;;;;;;21.00;87.60;102317.91;5174835;27;20172;-53
2022/07/11 10:04:59;;;;;;;1.90;0.90;;;;;;;20.83;87.92;102318.50;5175309;27;20046;-57
2022/07/11 10:07:27;;;;;;;3.00;1.67;;;;;;;20.97;88.52;102322.66;5174919;27;20069;-57
2022/07/11 10:09:56;;;;;;;3.45;1.30;;;;;;;20.92;89.00;102320.41;5172593;27;20588;-57
2022/07/11 10:12:25;;;;;;;2.22;1.05;;;;;;;20.72;90.47;102324.78;5153989;27;20554;-48
2022/07/11 10:14:54;;;;;;;2.08;0.80;;;;;;;20.67;89.57;102322.47;5174843;27;20406;-57
2022/07/11 10:17:29;;;;;;;2.30;0.80;;;;;;;20.65;90.19;102324.41;5174808;27;20069;-51
2022/07/11 10:20:05;;;;;;;1.58;0.70;;;;;;;20.63;89.95;102323.72;5173957;27;20103;-53
2022/07/11 10:22:38;;;;;;;2.10;0.80;;;;;;;20.67;89.69;102324.28;5171135;27;20058;-53
2022/07/11 10:25:18;;;;;;;0.70;0.60;;;;;;;20.47;89.94;102326.81;5173126;27;20042;-53
2022/07/11 10:28:03;;;;;;;1.48;0.90;;;;;;;20.40;89.43;102321.16;5174970;27;20046;-57
2022/07/11 10:30:43;;;;;;;0.98;0.77;;;;;;;20.35;90.43;102318.00;5174869;27;20412;-56
2022/07/11 10:33:12;;;;;;;1.08;0.70;;;;;;;20.55;89.87;102326.19;5174811;27;20038;-51
2022/07/11 10:35:46;;;;;;;1.50;0.60;;;;;;;20.60;90.56;102326.63;5174431;27;20091;-51
2022/07/11 10:38:15;;;;;;;1.33;0.68;;;;;;;20.65;89.99;102324.41;5178626;27;20050;-56
2022/07/11 10:40:48;;;;;;;1.85;0.80;;;;;;;20.82;88.68;102320.34;5178943;27;20046;-56
2022/07/11 10:43:33;;;;;;;1.15;0.63;;;;;;;20.92;89.07;102321.22;5179000;27;20389;-57
2022/07/11 10:46:02;;;;;;;1.00;0.70;;;;;;;20.79;87.48;102322.44;5178827;27;20392;-57
2022/07/11 10:48:32;;;;;;;1.10;0.77;;;;;;;20.86;87.74;102323.59;5178365;27;20049;-53
2022/07/11 10:51:17;;;;;;;1.98;0.70;;;;;;;20.78;87.01;102326.94;5178404;27;20042;-52
2022/07/11 10:53:49;;;;;;;1.52;0.80;;;;;;;20.97;85.53;102326.19;5178709;27;20041;-51
2022/07/11 10:56:48;;;;;;;1.20;0.70;;;;;;;20.96;85.46;102327.19;5160023;27;20046;-51
2022/07/11 10:59:23;;;;;;;2.08;0.70;;;;;;;21.21;86.52;102333.91;5175061;27;20061;-51
2022/07/11 11:02:10;;;;;;;1.60;0.70;;;;;;;21.39;86.10;102326.09;5176261;27;20141;-51
2022/07/11 11:04:43;;;;;;;1.17;0.60;;;;;;;21.53;84.83;102330.25;5178396;27;20046;-50
2022/07/11 11:07:30;;;;;;;;;;;;;;;21.59;84.77;102327.03;5178808;27;20038;-54
2022/07/11 11:10:00;;;;;;;1.10;0.63;;;;;;;21.71;85.25;102319.72;5178427;27;19961;-57
2022/07/11 11:13:06;;;;;;;1.38;0.65;;;;;;;21.89;84.22;102325.25;5178362;27;20069;-57
2022/07/11 11:15:36;;;;;;;2.05;0.45;;;;;;;22.06;84.14;102322.88;5178068;27;20481;-52
2022/07/11 11:18:36;;;;;;;0.55;0.50;;;;;;;21.88;81.78;102330.75;5177965;27;20445;-51
2022/07/11 11:21:17;;;;;;;1.00;0.60;;;;;;;22.12;83.32;102333.88;5176185;27;20503;-57
2022/07/11 11:24:02;;;;;;;1.50;0.50;;;;;;;22.31;80.99;102328.69;5175067;27;20045;-50
2022/07/11 11:26:49;;;;;;;1.15;0.60;;;;;;;22.36;82.04;102323.75;5178180;27;20154;-49
2022/07/11 11:29:26;;;;;;;1.50;0.77;;;;;;;22.39;80.71;102328.84;5177591;27;20042;-52
2022/07/11 11:31:58;;;;;;;1.67;0.60;;;;;;;22.47;79.74;102325.44;5178163;27;20393;-57
2022/07/11 11:34:28;;;;;;;0.85;0.60;;;;;;;22.67;78.61;102320.91;5177381;27;20050;-56
2022/07/11 11:37:01;;;;;;;1.48;0.60;;;;;;;22.72;78.47;102316.78;5177869;27;20085;-57
2022/07/11 11:39:35;;;;;;;0.70;0.60;;;;;;;22.92;77.53;102319.44;5176667;27;20034;-55